Time;durP1;ratioP1;P1;durP2;ratioP2;P2;SDS_P1;SDS_P2;PMS_P1;PMS_P2;Temp;Humidity;BMP_temperature;BMP_pressure;BME280_temperature;BME280_humidity;BME280_pressure;Samples;Min_cycle;Max_cycle;Signal;HPM_P1;HPM_P2
2023/08/06 00:00:41;;;;;;;11.70;10.50;;;;;;;24.65;64.12;98957.75;107512;1254;72671;-40
2023/08/06 00:03:09;;;;;;;11.90;10.80;;;;;;;24.65;64.09;98956.70;107387;1254;156124;-40
2023/08/06 00:07:14;;;;;;;12.40;11.20;;;;;;;24.67;64.02;98951.09;104305;1291;600400;-39
2023/08/06 00:09:41;;;;;;;11.70;10.50;;;;;;;24.63;64.21;98950.46;106602;1264;61690;-39
2023/08/06 00:12:09;;;;;;;11.30;9.80;;;;;;;24.66;64.23;98946.94;106637;1265;60015;-39
2023/08/06 00:14:37;;;;;;;11.70;10.30;;;;;;;24.71;64.16;98948.79;106653;1265;72268;-39
2023/08/06 00:17:04;;;;;;;13.30;11.00;;;;;;;24.73;64.30;98949.27;106680;1267;68102;-39
2023/08/06 00:19:32;;;;;;;11.50;10.00;;;;;;;24.72;63.99;98948.65;106639;1265;72711;-40
2023/08/06 00:22:01;;;;;;;12.10;10.80;;;;;;;24.73;64.09;98945.14;106708;1264;163162;-39
2023/08/06 00:24:29;;;;;;;12.10;10.80;;;;;;;24.72;64.17;98943.45;106763;1264;60100;-39
2023/08/06 00:26:56;;;;;;;12.20;10.60;;;;;;;24.67;64.33;98940.70;106746;1264;70950;-39
2023/08/06 00:29:25;;;;;;;12.80;10.60;;;;;;;24.68;64.19;98939.79;106869;1268;66669;-39
2023/08/06 00:31:53;;;;;;;11.50;10.20;;;;;;;24.70;64.36;98938.73;106782;1267;73135;-39
2023/08/06 00:34:20;;;;;;;13.40;11.00;;;;;;;24.70;64.32;98938.98;106860;1264;60180;-39
2023/08/06 00:36:48;;;;;;;11.30;10.30;;;;;;;24.70;64.34;98937.00;106854;1262;59212;-39
2023/08/06 00:39:15;;;;;;;12.80;11.50;;;;;;;24.68;64.41;98935.16;106864;1264;73029;-39
2023/08/06 00:41:43;;;;;;;13.00;11.60;;;;;;;24.68;64.26;98935.20;106885;1263;67598;-39
2023/08/06 00:44:11;;;;;;;13.90;10.50;;;;;;;24.65;64.46;98931.98;106843;1263;71687;-39
2023/08/06 00:46:39;;;;;;;11.60;10.20;;;;;;;24.66;64.53;98930.06;106871;1263;60397;-39
2023/08/06 00:49:07;;;;;;;12.10;10.90;;;;;;;24.67;64.48;98924.95;106870;1262;60040;-39
2023/08/06 00:51:35;;;;;;;12.70;11.00;;;;;;;24.66;64.59;98926.48;106797;1270;73104;-39
2023/08/06 00:54:03;;;;;;;12.90;11.40;;;;;;;24.65;64.50;98928.58;106853;1264;66612;-39
2023/08/06 00:56:31;;;;;;;14.30;11.60;;;;;;;24.64;64.67;98925.77;106833;1268;71486;-39
2023/08/06 00:58:59;;;;;;;15.00;11.00;;;;;;;24.62;64.62;98924.56;106816;1266;59629;-39
2023/08/06 01:01:27;;;;;;;13.80;11.70;;;;;;;24.60;64.73;98923.60;106610;1264;60051;-40
2023/08/06 01:03:56;;;;;;;12.30;10.30;;;;;;;24.60;64.73;98919.41;106691;1264;71794;-39
2023/08/06 01:06:33;;;;;;;13.00;11.30;;;;;;;24.62;64.70;98914.30;106658;1263;66665;-40
2023/08/06 01:09:13;;;;;;;15.30;11.70;;;;;;;24.63;64.79;98911.83;106747;1266;73183;-40
2023/08/06 01:11:47;;;;;;;14.50;11.70;;;;;;;24.58;64.97;98910.70;107145;1257;59734;-40
2023/08/06 01:14:38;;;;;;;15.30;12.00;;;;;;;24.53;65.17;98909.20;107134;1257;59525;-40
2023/08/06 01:17:05;;;;;;;13.40;12.10;;;;;;;24.48;65.31;98907.38;107147;1257;73087;-39
2023/08/06 01:19:33;;;;;;;12.30;11.00;;;;;;;24.40;65.60;98902.79;106964;1257;66350;-39
2023/08/06 01:22:01;;;;;;;13.10;11.80;;;;;;;24.40;65.79;98901.80;107090;1259;72936;-40
2023/08/06 01:24:28;;;;;;;13.70;11.60;;;;;;;24.40;65.88;98900.41;106942;1258;59461;-39
2023/08/06 01:27:06;;;;;;;13.50;11.50;;;;;;;24.37;66.12;98894.63;107172;1262;59532;-40
2023/08/06 01:29:39;;;;;;;13.30;11.90;;;;;;;24.37;66.02;98892.90;107226;1257;73375;-40
2023/08/06 01:32:08;;;;;;;12.90;11.60;;;;;;;24.34;66.09;98883.67;107256;1255;68512;-40
2023/08/06 01:34:35;;;;;;;12.40;11.00;;;;;;;24.32;66.27;98882.41;107317;1254;71480;-40
2023/08/06 01:37:04;;;;;;;13.70;10.40;;;;;;;24.32;66.35;98880.39;107132;1257;61650;-40
2023/08/06 01:39:34;;;;;;;13.30;11.20;;;;;;;24.34;66.38;98878.28;107172;1254;60561;-40
2023/08/06 01:42:04;;;;;;;12.70;11.40;;;;;;;24.35;66.36;98877.86;107259;1254;72402;-40
2023/08/06 01:44:31;;;;;;;12.50;10.80;;;;;;;24.34;66.28;98877.06;107175;1257;67720;-40
2023/08/06 01:46:59;;;;;;;13.30;12.10;;;;;;;24.31;66.44;98875.98;107068;1259;71444;-40
2023/08/06 01:49:27;;;;;;;13.10;10.70;;;;;;;24.29;66.54;98877.35;107103;1257;61797;-40
2023/08/06 01:51:54;;;;;;;13.40;11.00;;;;;;;24.29;66.54;98878.15;107142;1256;59476;-40
2023/08/06 01:54:22;;;;;;;13.70;10.60;;;;;;;24.31;66.56;98876.95;107102;1256;71801;-40
2023/08/06 01:56:50;;;;;;;13.30;11.30;;;;;;;24.33;66.48;98879.30;107078;1260;67602;-40
2023/08/06 01:59:18;;;;;;;12.40;11.10;;;;;;;24.32;66.54;98878.39;107043;1260;72657;-40
2023/08/06 02:01:46;;;;;;;12.60;11.30;;;;;;;24.29;66.52;98873.52;107039;1258;59614;-40
2023/08/06 02:04:14;;;;;;;12.80;10.60;;;;;;;24.29;66.43;98879.41;107095;1255;60363;-40
2023/08/06 02:06:44;;;;;;;12.50;11.20;;;;;;;24.23;66.59;98874.73;107127;1257;71843;-40
2023/08/06 02:09:12;;;;;;;12.90;10.80;;;;;;;24.23;66.78;98870.89;106993;1262;67579;-40
2023/08/06 02:11:40;;;;;;;11.40;10.30;;;;;;;24.25;66.68;98874.72;106931;1256;72658;-40
2023/08/06 02:14:07;;;;;;;13.10;10.70;;;;;;;24.25;66.72;98874.73;107019;1259;59616;-40
2023/08/06 02:16:35;;;;;;;12.50;10.70;;;;;;;24.25;66.78;98877.90;107070;1256;60153;-40
2023/08/06 02:19:03;;;;;;;14.70;11.70;;;;;;;24.23;66.82;98873.88;106999;1263;73188;-40
2023/08/06 02:21:31;;;;;;;18.80;11.90;;;;;;;24.22;66.75;98876.39;107028;1257;67586;-40
2023/08/06 02:23:59;;;;;;;11.80;10.60;;;;;;;24.21;66.84;98876.08;106989;1259;72679;-40
2023/08/06 02:26:27;;;;;;;14.30;11.20;;;;;;;24.24;66.85;98880.48;107149;1259;60307;-40
2023/08/06 02:28:55;;;;;;;12.00;10.90;;;;;;;24.24;66.74;98879.88;107217;1254;59589;-40
2023/08/06 02:31:23;;;;;;;12.60;11.30;;;;;;;24.21;66.85;98879.10;107157;1260;73072;-40
2023/08/06 02:33:51;;;;;;;13.10;10.40;;;;;;;24.20;66.81;98873.52;107261;1260;68468;-40
2023/08/06 02:36:19;;;;;;;11.80;10.60;;;;;;;24.19;66.74;98871.79;107207;1257;71058;-40
2023/08/06 02:38:47;;;;;;;11.90;10.10;;;;;;;24.19;66.81;98871.05;106949;1256;61723;-40
2023/08/06 02:41:14;;;;;;;11.90;10.70;;;;;;;24.21;66.79;98870.48;106929;1256;59504;-40
2023/08/06 02:43:42;;;;;;;13.10;11.00;;;;;;;24.22;66.82;98871.01;106913;1263;71813;-40
2023/08/06 02:46:10;;;;;;;12.50;11.00;;;;;;;24.21;66.74;98879.20;107074;1256;67862;-40
2023/08/06 02:48:38;;;;;;;14.60;11.50;;;;;;;24.20;66.78;98882.31;107045;1259;71440;-40
2023/08/06 02:51:06;;;;;;;11.90;10.60;;;;;;;24.18;66.79;98881.88;106940;1257;60868;-40
2023/08/06 02:53:33;;;;;;;11.50;10.40;;;;;;;24.16;66.92;98880.96;106966;1256;60183;-40
2023/08/06 02:56:04;;;;;;;12.00;10.60;;;;;;;24.17;66.84;98878.23;107084;1257;71806;-40
2023/08/06 02:58:43;;;;;;;12.50;11.20;;;;;;;24.17;67.01;98876.05;107052;1258;67597;-40
2023/08/06 03:01:19;;;;;;;12.20;10.70;;;;;;;24.16;67.08;98873.55;107107;1259;71451;-40
2023/08/06 03:03:53;;;;;;;14.60;12.40;;;;;;;24.15;67.02;98871.46;107107;1257;59340;-40
2023/08/06 03:06:24;;;;;;;11.40;10.20;;;;;;;24.12;67.11;98870.37;107054;1258;59764;-40
2023/08/06 03:08:53;;;;;;;11.90;10.50;;;;;;;24.12;67.14;98872.43;107083;1256;71846;-40
2023/08/06 03:11:21;;;;;;;11.90;10.70;;;;;;;24.16;67.15;98871.02;107056;1257;67688;-40
2023/08/06 03:13:49;;;;;;;13.10;11.00;;;;;;;24.18;67.03;98869.60;106927;1258;71435;-40
2023/08/06 03:16:17;;;;;;;11.90;10.70;;;;;;;24.18;67.00;98868.59;107022;1259;59614;-39
2023/08/06 03:18:45;;;;;;;13.70;10.70;;;;;;;24.17;67.02;98862.81;107078;1257;59603;-39
2023/08/06 03:21:12;;;;;;;11.30;10.20;;;;;;;24.17;67.04;98864.88;107061;1259;71820;-40
2023/08/06 03:23:40;;;;;;;11.90;10.00;;;;;;;24.18;66.99;98862.39;107048;1258;66640;-40
2023/08/06 03:26:09;;;;;;;15.10;10.80;;;;;;;24.24;66.93;98862.90;107008;1260;72696;-40
2023/08/06 03:28:37;;;;;;;13.90;10.70;;;;;;;24.27;66.94;98857.59;107091;1257;59586;-40
2023/08/06 03:31:05;;;;;;;12.00;10.70;;;;;;;24.25;66.88;98854.80;107153;1257;59527;-39
2023/08/06 03:33:41;;;;;;;13.60;11.40;;;;;;;24.24;66.96;98854.60;107060;1256;71935;-40
2023/08/06 03:36:13;;;;;;;11.80;10.50;;;;;;;24.24;67.06;98852.63;107216;1256;66790;-40
2023/08/06 03:38:41;;;;;;;10.70;9.60;;;;;;;24.28;67.03;98853.64;107145;1258;71398;-40
2023/08/06 03:41:09;;;;;;;11.40;10.30;;;;;;;24.32;66.91;98852.65;107056;1258;59761;-40
2023/08/06 03:43:37;;;;;;;11.20;10.10;;;;;;;24.35;67.00;98855.38;107163;1257;59251;-40
2023/08/06 03:46:07;;;;;;;;;;;;;;;24.36;66.83;98860.70;107031;1263;71916;-40
2023/08/06 03:48:35;;;;;;;12.70;11.10;;;;;;;24.33;67.04;98859.85;107089;1257;66808;-40
2023/08/06 03:51:03;;;;;;;13.20;10.80;;;;;;;24.29;67.23;98859.27;107038;1259;71395;-40
2023/08/06 03:53:30;;;;;;;12.10;10.60;;;;;;;24.32;67.11;98857.59;107010;1257;62048;-40
2023/08/06 03:55:59;;;;;;;11.30;10.20;;;;;;;24.38;67.18;98858.82;106987;1259;59627;-40
2023/08/06 03:58:28;;;;;;;11.50;10.40;;;;;;;24.43;67.18;98857.77;107076;1256;71891;-39
2023/08/06 04:01:02;;;;;;;13.00;11.00;;;;;;;24.48;67.07;98855.83;106985;1258;67579;-39
2023/08/06 04:03:44;;;;;;;12.70;11.10;;;;;;;24.52;66.98;98851.20;107108;1258;71400;-39
2023/08/06 04:06:12;;;;;;;14.80;11.10;;;;;;;24.54;66.86;98844.45;107073;1257;59775;-40
2023/08/06 04:08:40;;;;;;;13.00;10.70;;;;;;;24.57;66.76;98844.25;107061;1257;59493;-40
2023/08/06 04:11:08;;;;;;;12.50;10.90;;;;;;;24.59;66.75;98839.69;106890;1257;73108;-40
2023/08/06 04:13:35;;;;;;;10.90;9.90;;;;;;;24.66;66.75;98836.22;107037;1258;66635;-40
2023/08/06 04:16:04;;;;;;;11.20;10.10;;;;;;;24.72;66.57;98831.16;107066;1259;72702;-40
2023/08/06 04:18:33;;;;;;;12.00;10.90;;;;;;;24.78;66.53;98831.05;107073;1259;60399;-42
2023/08/06 04:21:01;;;;;;;12.90;10.80;;;;;;;24.84;66.47;98827.86;107141;1257;60278;-39
2023/08/06 04:23:29;;;;;;;13.10;11.00;;;;;;;24.88;66.08;98826.58;107155;1256;73895;-40
2023/08/06 04:26:01;;;;;;;13.90;10.60;;;;;;;24.92;66.08;98823.20;107201;1256;66670;-40
2023/08/06 04:28:32;;;;;;;11.90;9.90;;;;;;;24.99;65.97;98821.85;106957;1259;71871;-40
2023/08/06 04:30:59;;;;;;;12.80;9.80;;;;;;;25.08;65.56;98819.12;107018;1259;61109;-40
2023/08/06 04:33:29;;;;;;;11.10;10.00;;;;;;;25.14;65.36;98814.37;107070;1259;59669;-41
2023/08/06 04:35:59;;;;;;;11.30;10.10;;;;;;;25.21;65.40;98817.54;107167;1256;74912;-40
2023/08/06 04:38:28;;;;;;;13.60;10.20;;;;;;;25.26;65.25;98815.77;107021;1259;67674;-40
2023/08/06 04:40:55;;;;;;;12.40;10.40;;;;;;;25.30;64.67;98810.48;107002;1258;71433;-40
2023/08/06 04:43:24;;;;;;;12.90;9.50;;;;;;;25.35;64.59;98805.98;106915;1258;60458;-40
2023/08/06 04:45:53;;;;;;;10.20;8.80;;;;;;;25.42;64.32;98800.44;106789;1263;60316;-40
2023/08/06 04:48:22;;;;;;;11.50;9.50;;;;;;;25.52;63.65;98797.11;107054;1259;73805;-39
2023/08/06 04:50:50;;;;;;;11.20;10.00;;;;;;;25.59;63.49;98795.96;107173;1259;67618;-39
2023/08/06 04:53:17;;;;;;;11.30;9.40;;;;;;;25.65;63.25;98793.96;106969;1259;72712;-40
2023/08/06 04:55:45;;;;;;;10.30;9.30;;;;;;;25.73;62.93;98789.36;107003;1257;61147;-40
2023/08/06 04:58:13;;;;;;;11.10;9.80;;;;;;;25.80;62.40;98786.63;107204;1257;60406;-40
2023/08/06 05:00:40;;;;;;;12.00;9.60;;;;;;;25.85;61.93;98781.68;107185;1259;72502;-40
2023/08/06 05:03:08;;;;;;;10.70;9.50;;;;;;;25.90;61.69;98782.52;107002;1257;67897;-40
2023/08/06 05:05:35;;;;;;;12.50;9.90;;;;;;;25.95;61.39;98778.84;107001;1256;72704;-41
2023/08/06 05:08:03;;;;;;;10.30;9.10;;;;;;;26.00;61.12;98779.32;106994;1256;60477;-40
2023/08/06 05:10:31;;;;;;;11.90;9.00;;;;;;;26.08;60.98;98779.98;107012;1256;60378;-40
2023/08/06 05:12:58;;;;;;;10.00;8.90;;;;;;;26.18;60.85;98782.48;107001;1259;75085;-40
2023/08/06 05:15:26;;;;;;;13.00;9.60;;;;;;;26.25;60.89;98779.24;107156;1261;66309;-40
2023/08/06 05:17:53;;;;;;;15.60;9.80;;;;;;;26.33;60.75;98779.22;107088;1256;71474;-40
2023/08/06 05:20:21;;;;;;;13.30;9.30;;;;;;;26.40;59.74;98775.75;107053;1256;60449;-40
2023/08/06 05:22:49;;;;;;;14.50;9.60;;;;;;;26.47;59.82;98773.46;107148;1256;60343;-40
2023/08/06 05:25:16;;;;;;;14.00;9.50;;;;;;;26.53;59.68;98770.39;107004;1257;73230;-39
2023/08/06 05:27:46;;;;;;;10.70;8.90;;;;;;;26.59;59.14;98768.77;106992;1259;67596;-40
2023/08/06 05:30:13;;;;;;;10.60;9.40;;;;;;;26.62;58.63;98766.95;107000;1259;71457;-40
2023/08/06 05:32:41;;;;;;;11.20;9.50;;;;;;;26.64;58.90;98762.16;107095;1259;60313;-40
2023/08/06 05:35:09;;;;;;;10.30;9.00;;;;;;;26.67;58.17;98760.09;107111;1258;60721;-41
2023/08/06 05:37:36;;;;;;;10.30;9.30;;;;;;;26.71;58.07;98755.25;107094;1256;73913;-41
2023/08/06 05:40:04;;;;;;;12.20;9.30;;;;;;;26.77;58.40;98750.33;107054;1259;67699;-41
2023/08/06 05:42:32;;;;;;;10.00;9.00;;;;;;;26.84;58.08;98744.06;107058;1258;72684;-41
2023/08/06 05:44:59;;;;;;;10.50;9.00;;;;;;;26.90;57.99;98738.04;107066;1262;59565;-41
2023/08/06 05:47:27;;;;;;;10.50;9.40;;;;;;;26.97;57.85;98731.71;107013;1259;60336;-40
2023/08/06 05:49:55;;;;;;;12.10;8.90;;;;;;;27.04;57.89;98733.59;107000;1256;73871;-40
2023/08/06 05:52:22;;;;;;;11.40;8.20;;;;;;;27.14;57.03;98725.05;107045;1256;67572;-41
2023/08/06 05:54:50;;;;;;;10.80;8.30;;;;;;;27.24;56.44;98724.93;107047;1256;72697;-41
2023/08/06 05:57:17;;;;;;;10.50;8.60;;;;;;;27.33;56.24;98726.34;107027;1262;60426;-40
2023/08/06 05:59:45;;;;;;;13.50;9.20;;;;;;;27.40;56.35;98724.31;107037;1256;60445;-41
2023/08/06 06:02:13;;;;;;;9.30;8.40;;;;;;;27.47;55.45;98717.61;107080;1256;72552;-41
2023/08/06 06:04:40;;;;;;;11.10;8.60;;;;;;;27.54;55.65;98715.98;107021;1261;67093;-41
2023/08/06 06:07:08;;;;;;;12.00;8.90;;;;;;;27.62;55.26;98710.75;107056;1256;72783;-40
2023/08/06 06:09:35;;;;;;;9.90;8.60;;;;;;;27.69;55.73;98709.00;107027;1257;60425;-41
2023/08/06 06:12:04;;;;;;;13.90;8.80;;;;;;;27.76;55.27;98702.73;107032;1256;60296;-41
2023/08/06 06:14:31;;;;;;;12.40;8.80;;;;;;;27.83;54.91;98704.08;107105;1257;72707;-40
2023/08/06 06:17:00;;;;;;;11.90;8.90;;;;;;;27.89;54.22;98701.70;107025;1259;67867;-40
2023/08/06 06:19:27;;;;;;;10.00;9.00;;;;;;;27.93;54.04;98699.30;107051;1260;72778;-40
2023/08/06 06:21:57;;;;;;;9.50;8.50;;;;;;;27.97;54.32;98695.60;107050;1256;60555;-40
2023/08/06 06:24:25;;;;;;;;;;;;;;;28.04;54.46;98692.61;107032;1256;60490;-40
2023/08/06 06:26:53;;;;;;;9.50;8.40;;;;;;;28.06;53.96;98692.64;107038;1256;73004;-40
2023/08/06 06:29:20;;;;;;;11.10;8.60;;;;;;;28.08;54.13;98684.55;107214;1256;66751;-40
2023/08/06 06:31:48;;;;;;;11.20;8.80;;;;;;;28.16;53.88;98684.83;107056;1257;72732;-40
2023/08/06 06:34:16;;;;;;;10.60;8.50;;;;;;;28.22;53.37;98674.89;107009;1262;60103;-40
2023/08/06 06:36:43;;;;;;;9.80;8.80;;;;;;;28.29;53.19;98672.62;106991;1258;60397;-41
2023/08/06 06:39:11;;;;;;;9.40;8.50;;;;;;;28.34;52.97;98669.20;106944;1258;73919;-40
2023/08/06 06:41:38;;;;;;;11.20;9.00;;;;;;;28.40;52.34;98659.46;107074;1257;66446;-40
2023/08/06 06:44:11;;;;;;;9.90;8.50;;;;;;;28.45;52.62;98653.45;107030;1257;72719;-40
2023/08/06 06:46:38;;;;;;;15.20;8.60;;;;;;;28.51;52.32;98651.57;107017;1259;59585;-40
2023/08/06 06:49:06;;;;;;;9.30;8.40;;;;;;;28.58;52.37;98646.98;106998;1259;60407;-40
2023/08/06 06:51:33;;;;;;;13.00;8.60;;;;;;;28.65;52.70;98643.93;107023;1256;73854;-40
2023/08/06 06:54:01;;;;;;;9.50;8.40;;;;;;;28.73;52.65;98639.73;107021;1260;67604;-40
2023/08/06 06:56:29;;;;;;;10.60;8.80;;;;;;;28.81;51.98;98637.44;107037;1259;71368;-40
2023/08/06 06:58:56;;;;;;;11.30;8.70;;;;;;;28.88;52.14;98635.85;106996;1262;60286;-40
2023/08/06 07:01:24;;;;;;;12.10;9.30;;;;;;;28.97;52.13;98628.94;106954;1258;60299;-40
2023/08/06 07:03:51;;;;;;;9.10;8.10;;;;;;;29.04;51.89;98619.57;107047;1257;72665;-40
2023/08/06 07:06:19;;;;;;;9.50;8.40;;;;;;;29.12;51.50;98616.90;106970;1259;66899;-40
2023/08/06 07:08:46;;;;;;;11.80;8.10;;;;;;;29.19;50.86;98609.86;106943;1263;70947;-41
2023/08/06 07:11:14;;;;;;;12.10;7.70;;;;;;;29.25;50.10;98607.75;106978;1259;60389;-41
2023/08/06 07:13:42;;;;;;;10.30;8.20;;;;;;;29.31;49.82;98607.02;107059;1261;61096;-41
2023/08/06 07:16:09;;;;;;;10.20;8.30;;;;;;;29.36;49.56;98599.42;107007;1256;73838;-41
2023/08/06 07:18:38;;;;;;;14.10;8.70;;;;;;;29.41;49.66;98601.21;107178;1259;67648;-41
2023/08/06 07:21:05;;;;;;;9.90;7.90;;;;;;;29.45;49.10;98602.77;107044;1259;72697;-41
2023/08/06 07:23:33;;;;;;;8.90;8.00;;;;;;;29.48;48.90;98602.08;107017;1259;60541;-41
2023/08/06 07:26:01;;;;;;;9.00;8.00;;;;;;;29.55;49.06;98599.80;107066;1262;59225;-40
2023/08/06 07:28:28;;;;;;;9.30;7.70;;;;;;;29.62;48.98;98599.85;107056;1257;73859;-41
2023/08/06 07:30:56;;;;;;;9.00;7.70;;;;;;;29.69;49.40;98594.66;107047;1257;66356;-41
2023/08/06 07:33:23;;;;;;;8.40;7.60;;;;;;;29.81;49.67;98597.77;107107;1259;72663;-41
2023/08/06 07:35:51;;;;;;;8.70;7.60;;;;;;;29.95;48.90;98595.41;107033;1257;60429;-40
2023/08/06 07:38:19;;;;;;;10.50;7.40;;;;;;;30.08;48.46;98587.55;107018;1259;60285;-41
2023/08/06 07:40:47;;;;;;;8.90;7.40;;;;;;;30.20;47.75;98580.62;107055;1263;73908;-41
2023/08/06 07:43:15;;;;;;;9.50;7.60;;;;;;;30.30;47.29;98580.29;107038;1260;66657;-41
2023/08/06 07:45:42;;;;;;;9.30;7.60;;;;;;;30.40;46.66;98577.02;107114;1257;71428;-40
2023/08/06 07:48:10;;;;;;;8.10;7.00;;;;;;;30.47;46.43;98576.20;107054;1262;60451;-41
2023/08/06 07:50:37;;;;;;;12.60;7.50;;;;;;;30.53;46.49;98574.05;107095;1256;60326;-40
2023/08/06 07:53:05;;;;;;;7.90;7.20;;;;;;;30.60;46.37;98576.35;107059;1256;73882;-41
2023/08/06 07:55:32;;;;;;;15.10;7.10;;;;;;;30.70;45.21;98569.59;107018;1262;66639;-41
2023/08/06 07:58:00;;;;;;;9.70;6.50;;;;;;;30.78;45.22;98574.60;107041;1258;73171;-40
2023/08/06 08:00:28;;;;;;;8.20;7.40;;;;;;;30.90;45.54;98573.86;107113;1259;60304;-41
2023/08/06 08:02:56;;;;;;;9.30;6.80;;;;;;;31.00;45.54;98566.61;107025;1256;60424;-41
2023/08/06 08:05:24;;;;;;;8.20;6.70;;;;;;;31.10;44.14;98564.58;107118;1262;74328;-41
2023/08/06 08:07:51;;;;;;;9.20;7.30;;;;;;;31.15;44.22;98565.31;107057;1262;68000;-41
2023/08/06 08:10:19;;;;;;;8.20;6.90;;;;;;;31.22;44.32;98558.74;107095;1258;72653;-41
2023/08/06 08:12:47;;;;;;;8.20;6.10;;;;;;;31.31;43.53;98562.77;107038;1260;60582;-41
2023/08/06 08:15:15;;;;;;;8.70;6.10;;;;;;;31.40;43.06;98555.05;107098;1256;60292;-41
2023/08/06 08:17:42;;;;;;;7.20;6.40;;;;;;;31.50;42.99;98560.63;107185;1261;73880;-41
2023/08/06 08:20:11;;;;;;;7.60;6.20;;;;;;;31.59;42.76;98556.23;107205;1258;68065;-41
2023/08/06 08:22:38;;;;;;;10.80;6.00;;;;;;;31.66;42.26;98565.06;107216;1257;71384;-41
2023/08/06 08:25:06;;;;;;;6.90;6.30;;;;;;;31.70;42.54;98566.49;107160;1257;60286;-41
2023/08/06 08:27:34;;;;;;;7.90;6.70;;;;;;;31.77;42.40;98561.86;106950;1262;60521;-41
2023/08/06 08:30:01;;;;;;;9.20;6.60;;;;;;;31.84;42.23;98561.48;107010;1256;73911;-41
2023/08/06 08:32:29;;;;;;;9.40;6.20;;;;;;;31.89;42.25;98553.54;106934;1259;67624;-41
2023/08/06 08:34:56;;;;;;;9.80;6.80;;;;;;;31.97;42.39;98550.91;106951;1257;71412;-40
2023/08/06 08:37:24;;;;;;;7.50;6.60;;;;;;;32.07;42.74;98553.77;107009;1259;60289;-41
2023/08/06 08:39:52;;;;;;;7.30;6.20;;;;;;;32.18;42.24;98549.50;107047;1256;60396;-41
2023/08/06 08:42:19;;;;;;;10.30;6.60;;;;;;;32.27;41.87;98550.72;107146;1262;73913;-41
2023/08/06 08:44:47;;;;;;;12.10;6.20;;;;;;;32.33;42.29;98549.02;106945;1257;67599;-41
2023/08/06 08:47:16;;;;;;;11.10;7.00;;;;;;;32.40;42.72;98549.60;106848;1259;71496;-41
2023/08/06 08:49:43;;;;;;;11.00;6.60;;;;;;;32.50;42.18;98542.40;106793;1259;59165;-41
2023/08/06 08:52:12;;;;;;;7.10;6.40;;;;;;;32.60;41.67;98541.41;106941;1258;60334;-41
2023/08/06 08:54:40;;;;;;;10.90;6.80;;;;;;;32.67;41.20;98538.83;107138;1261;73820;-41
2023/08/06 08:57:08;;;;;;;8.70;6.20;;;;;;;32.74;40.68;98534.92;107060;1260;66636;-42
2023/08/06 08:59:35;;;;;;;8.30;6.40;;;;;;;32.79;40.87;98535.73;106993;1260;72671;-41
2023/08/06 09:02:03;;;;;;;9.40;5.70;;;;;;;32.85;41.50;98534.20;106995;1262;60365;-41
2023/08/06 09:04:35;;;;;;;8.50;5.70;;;;;;;32.94;40.90;98535.16;106949;1257;60298;-41
2023/08/06 09:07:03;;;;;;;7.90;6.20;;;;;;;33.02;40.56;98535.95;106940;1260;72619;-41
2023/08/06 09:09:32;;;;;;;9.30;6.40;;;;;;;33.07;40.29;98534.25;107014;1259;66643;-41
2023/08/06 09:12:06;;;;;;;10.00;5.60;;;;;;;33.11;40.66;98529.60;107001;1259;72764;-41
2023/08/06 09:14:33;;;;;;;7.60;5.80;;;;;;;33.21;40.83;98527.44;106926;1263;60323;-42
2023/08/06 09:17:01;;;;;;;8.40;5.40;;;;;;;33.32;40.75;98525.27;106789;1258;60484;-42
2023/08/06 09:19:28;;;;;;;8.60;6.00;;;;;;;33.43;40.73;98517.16;107005;1257;74217;-41
2023/08/06 09:21:56;;;;;;;7.10;5.80;;;;;;;33.53;40.29;98512.40;107013;1258;67531;-42
2023/08/06 09:24:26;;;;;;;7.20;6.10;;;;;;;33.63;40.18;98509.57;106989;1257;72693;-42
2023/08/06 09:26:54;;;;;;;;;;;;;;;33.75;39.81;98505.65;107069;1259;61172;-41
2023/08/06 09:29:21;;;;;;;11.10;6.10;;;;;;;33.79;39.45;98503.31;106856;1259;60402;-41
2023/08/06 09:31:53;;;;;;;7.50;6.00;;;;;;;33.81;38.85;98492.45;106987;1258;74306;-41
2023/08/06 09:34:22;;;;;;;9.00;5.80;;;;;;;33.89;38.30;98489.94;108001;1260;67563;-38
2023/08/06 09:36:53;;;;;;;13.20;5.70;;;;;;;33.96;38.16;98479.89;107009;1262;72746;-38
2023/08/06 09:39:26;;;;;;;6.30;5.40;;;;;;;34.01;37.49;98477.48;107049;1261;61869;-39
2023/08/06 09:41:58;;;;;;;9.00;5.40;;;;;;;34.04;36.99;98473.70;107058;1263;60277;-39
2023/08/06 09:44:27;;;;;;;9.30;5.50;;;;;;;34.09;37.35;98467.73;107074;1258;73015;-39
2023/08/06 09:46:56;;;;;;;7.60;5.70;;;;;;;34.16;37.26;98465.95;107107;1258;66482;-40
2023/08/06 09:49:28;;;;;;;7.10;5.80;;;;;;;34.23;37.43;98465.53;106996;1262;71497;-40
2023/08/06 09:51:58;;;;;;;12.20;6.00;;;;;;;34.31;37.34;98461.59;107096;1262;60595;-40
2023/08/06 09:54:26;;;;;;;;;;;;;;;34.38;36.83;98456.30;106904;1263;59231;-40
2023/08/06 09:56:54;;;;;;;;;;;;;;;34.41;36.64;98450.27;107015;1261;73860;-40
2023/08/06 09:59:24;;;;;;;7.70;6.00;;;;;;;34.40;36.96;98446.80;107032;1262;67580;-40
2023/08/06 10:01:52;;;;;;;;;;;;;;;34.46;35.72;98445.03;106932;1263;73177;-40
2023/08/06 10:04:20;;;;;;;11.10;7.10;;;;;;;34.47;36.24;98437.36;106805;1264;60525;-41
2023/08/06 10:06:54;;;;;;;7.30;6.40;;;;;;;34.56;36.79;98442.56;108261;1262;58793;-39
2023/08/06 10:09:21;;;;;;;12.00;7.20;;;;;;;34.73;36.56;98436.88;107302;1263;72550;-41
2023/08/06 10:11:50;;;;;;;9.20;7.20;;;;;;;34.90;35.82;98433.40;107065;1258;68051;-41
2023/08/06 10:14:30;;;;;;;;;;;;;;;35.04;35.27;98433.33;107131;1258;71505;-41
2023/08/06 10:16:57;;;;;;;9.10;6.80;;;;;;;35.13;35.47;98434.53;106863;1257;60736;-41
2023/08/06 10:19:25;;;;;;;11.90;6.50;;;;;;;35.22;34.99;98422.94;106968;1260;60323;-40
2023/08/06 10:22:12;;;;;;;9.20;6.40;;;;;;;35.37;34.79;98420.27;107047;1264;73890;-41
2023/08/06 10:24:53;;;;;;;8.20;6.60;;;;;;;35.54;34.75;98414.73;107028;1263;67915;-41
2023/08/06 10:27:21;;;;;;;8.40;6.10;;;;;;;35.69;34.94;98413.29;107043;1262;71462;-41
2023/08/06 10:29:50;;;;;;;8.10;6.10;;;;;;;35.83;34.39;98409.60;107014;1261;60428;-41
2023/08/06 10:32:18;;;;;;;7.40;6.20;;;;;;;35.98;34.32;98405.48;106872;1258;60523;-41
2023/08/06 10:35:04;;;;;;;7.90;5.80;;;;;;;36.15;34.00;98400.34;106815;1263;73928;-41
2023/08/06 10:37:36;;;;;;;12.70;6.00;;;;;;;36.35;33.35;98400.91;108875;1260;68415;-42
2023/08/06 10:40:05;;;;;;;8.80;5.60;;;;;;;36.50;33.30;98395.08;108876;1260;72797;-42
2023/08/06 10:42:33;;;;;;;8.90;5.60;;;;;;;36.68;32.99;98393.56;108863;1261;59239;-42
2023/08/06 10:45:30;;;;;;;9.40;5.30;;;;;;;36.86;32.48;98385.54;108908;1261;58757;-39
2023/08/06 10:47:58;;;;;;;9.00;5.40;;;;;;;37.04;31.67;98383.66;107444;1263;72827;-41
2023/08/06 10:50:26;;;;;;;7.10;4.80;;;;;;;37.13;31.39;98376.80;107145;1260;67854;-41
2023/08/06 10:52:53;;;;;;;8.40;4.90;;;;;;;37.22;30.93;98372.67;107259;1257;71613;-40
2023/08/06 10:55:25;;;;;;;10.00;5.30;;;;;;;37.33;31.63;98371.31;107089;1263;60441;-41
2023/08/06 10:57:53;;;;;;;7.80;4.90;;;;;;;37.50;31.04;98366.73;106974;1262;60533;-41
2023/08/06 11:00:22;;;;;;;7.00;5.00;;;;;;;37.64;30.80;98359.29;107209;1258;72592;-41
2023/08/06 11:02:51;;;;;;;7.00;4.90;;;;;;;37.80;30.92;98359.80;107145;1262;67608;-41
2023/08/06 11:05:19;;;;;;;12.70;4.90;;;;;;;37.99;30.45;98351.27;107075;1261;72723;-41
2023/08/06 11:07:49;;;;;;;8.10;4.60;;;;;;;38.19;30.05;98345.63;107185;1258;60462;-41
2023/08/06 11:10:17;;;;;;;6.80;4.70;;;;;;;38.36;29.51;98344.38;107036;1258;60851;-40
2023/08/06 11:12:45;;;;;;;8.00;4.40;;;;;;;38.49;29.01;98338.34;107175;1258;73799;-40
2023/08/06 11:15:12;;;;;;;8.60;4.50;;;;;;;38.58;28.75;98326.50;107213;1257;68109;-40
2023/08/06 11:17:41;;;;;;;6.10;4.00;;;;;;;38.63;28.47;98325.79;107165;1257;72765;-40
2023/08/06 11:20:09;;;;;;;8.10;3.50;;;;;;;38.73;28.47;98325.21;106987;1260;60514;-40
2023/08/06 11:22:37;;;;;;;4.10;3.70;;;;;;;38.86;27.61;98322.00;107057;1257;60462;-40
2023/08/06 11:25:06;;;;;;;5.10;3.60;;;;;;;38.97;27.06;98322.17;107144;1258;73888;-41
2023/08/06 11:27:34;;;;;;;5.80;3.20;;;;;;;39.00;27.09;98313.80;107133;1257;67639;-41